createdAt,value
2022-09-16T00:00:44.207Z,1.05
2022-09-16T00:03:12.021Z,1.33
2022-09-16T00:05:47.232Z,1.30
2022-09-16T00:08:14.734Z,1.20
2022-09-16T00:10:43.733Z,1.23
2022-09-16T00:13:11.756Z,1.30
2022-09-16T00:15:41.598Z,1.15
2022-09-16T00:18:08.312Z,1.30
2022-09-16T00:20:35.057Z,1.50
2022-09-16T00:23:01.747Z,1.10
2022-09-16T00:25:28.544Z,1.20
2022-09-16T00:27:55.290Z,1.05
2022-09-16T00:30:21.983Z,1.08
2022-09-16T00:32:48.797Z,1.15
2022-09-16T00:35:15.683Z,1.45
2022-09-16T00:37:42.445Z,1.23
2022-09-16T00:40:10.499Z,1.27
2022-09-16T00:42:39.702Z,1.20
2022-09-16T00:45:17.028Z,0.98
2022-09-16T00:47:57.762Z,1.00
2022-09-16T00:51:02.043Z,1.40
2022-09-16T00:53:34.152Z,1.15
2022-09-16T00:56:05.058Z,1.30
2022-09-16T00:58:43.821Z,1.27
2022-09-16T01:01:10.819Z,1.10
2022-09-16T01:03:46.939Z,1.27
2022-09-16T01:06:15.190Z,1.35
2022-09-16T01:08:43.605Z,1.00
2022-09-16T01:11:10.883Z,1.52
2022-09-16T01:13:39.131Z,1.30
2022-09-16T01:16:22.060Z,1.33
2022-09-16T01:19:01.876Z,1.67
2022-09-16T01:21:31.625Z,1.17
2022-09-16T01:24:19.420Z,1.48
2022-09-16T01:27:29.928Z,1.40
2022-09-16T01:30:15.770Z,1.45
2022-09-16T01:33:01.384Z,1.55
2022-09-16T01:35:58.248Z,1.50
2022-09-16T01:38:49.364Z,1.23
2022-09-16T01:41:51.484Z,1.30
2022-09-16T01:44:26.870Z,1.38
2022-09-16T01:46:59.745Z,1.48
2022-09-16T01:49:35.867Z,1.90
2022-09-16T01:52:26.408Z,1.20
2022-09-16T01:55:23.877Z,1.90
2022-09-16T01:58:15.319Z,1.30
2022-09-16T02:00:45.226Z,1.10
2022-09-16T02:03:30.337Z,1.33
2022-09-16T02:06:05.679Z,1.40
2022-09-16T02:08:48.438Z,1.23
2022-09-16T02:11:18.059Z,1.60
2022-09-16T02:14:31.299Z,1.50
2022-09-16T02:17:26.453Z,1.08
2022-09-16T02:20:17.362Z,1.35
2022-09-16T02:22:48.460Z,1.17
2022-09-16T02:25:18.313Z,1.23
2022-09-16T02:27:47.287Z,1.25
2022-09-16T02:30:20.134Z,1.10
2022-09-16T02:32:52.230Z,1.10
2022-09-16T02:35:21.158Z,1.05
2022-09-16T02:38:03.020Z,0.98
2022-09-16T02:40:35.357Z,1.10
2022-09-16T02:43:02.972Z,1.10
2022-09-16T02:46:09.271Z,1.13
2022-09-16T02:48:51.076Z,1.10
2022-09-16T02:51:30.599Z,1.20
2022-09-16T02:54:06.554Z,1.10
2022-09-16T02:56:39.527Z,1.10
2022-09-16T02:59:10.293Z,1.58
2022-09-16T03:01:49.126Z,1.13
2022-09-16T03:04:19.163Z,1.15
2022-09-16T03:06:48.635Z,1.45
2022-09-16T03:09:18.285Z,1.00
2022-09-16T03:11:59.028Z,1.20
2022-09-16T03:14:47.492Z,1.10
2022-09-16T03:17:46.275Z,1.25
2022-09-16T03:20:19.242Z,1.10
2022-09-16T03:23:02.611Z,0.93
2022-09-16T03:25:51.348Z,1.15
2022-09-16T03:28:49.258Z,1.00
2022-09-16T03:31:32.233Z,1.00
2022-09-16T03:34:14.115Z,1.00
2022-09-16T03:36:58.635Z,1.35
2022-09-16T03:39:25.682Z,1.00
2022-09-16T03:41:52.532Z,1.10
2022-09-16T03:44:19.411Z,1.33
2022-09-16T03:46:46.613Z,1.00
2022-09-16T03:49:13.521Z,1.20
2022-09-16T03:51:40.256Z,0.82
2022-09-16T03:54:07.022Z,1.10
2022-09-16T03:56:33.741Z,1.17
2022-09-16T03:59:00.463Z,1.10
2022-09-16T04:01:27.259Z,1.20
2022-09-16T04:03:54.129Z,0.95
2022-09-16T04:06:20.861Z,0.93
2022-09-16T04:08:50.482Z,1.00
2022-09-16T04:11:17.927Z,1.40
2022-09-16T04:13:44.650Z,1.00
2022-09-16T04:16:11.425Z,0.90
2022-09-16T04:18:38.274Z,1.77
2022-09-16T04:21:05.258Z,1.20
2022-09-16T04:23:32.374Z,1.25
2022-09-16T04:26:04.101Z,1.38
2022-09-16T04:28:32.271Z,1.13
2022-09-16T04:31:06.887Z,0.90
2022-09-16T04:33:35.533Z,0.90
2022-09-16T04:36:07.026Z,1.17
2022-09-16T04:38:33.894Z,1.15
2022-09-16T04:41:06.455Z,1.55
2022-09-16T04:43:33.429Z,1.10
2022-09-16T04:46:00.899Z,1.10
2022-09-16T04:48:28.675Z,1.63
2022-09-16T04:51:01.279Z,1.23
2022-09-16T04:53:28.037Z,1.17
2022-09-16T04:55:54.766Z,1.20
2022-09-16T04:58:21.788Z,1.33
2022-09-16T05:00:48.621Z,1.10
2022-09-16T05:03:15.700Z,1.20
2022-09-16T05:05:42.408Z,1.27
2022-09-16T05:08:09.112Z,1.48
2022-09-16T05:10:35.845Z,1.17
2022-09-16T05:13:02.640Z,1.60
2022-09-16T05:15:29.564Z,1.35
2022-09-16T05:17:56.270Z,1.40
2022-09-16T05:20:23.220Z,1.45
2022-09-16T05:22:51.600Z,1.33
2022-09-16T05:25:18.476Z,1.15
2022-09-16T05:27:45.298Z,2.63
2022-09-16T05:30:14.526Z,1.33
2022-09-16T05:32:41.299Z,1.17
2022-09-16T05:35:08.413Z,1.20
2022-09-16T05:37:35.218Z,1.10
2022-09-16T05:40:03.406Z,1.35
2022-09-16T05:42:30.285Z,1.27
2022-09-16T05:44:57.104Z,1.20
2022-09-16T05:47:23.859Z,1.20
2022-09-16T05:49:54.748Z,1.25
2022-09-16T05:52:21.641Z,1.33
2022-09-16T05:54:48.345Z,1.70
2022-09-16T05:57:15.205Z,1.40
2022-09-16T05:59:41.969Z,1.50
2022-09-16T06:02:09.790Z,1.80
2022-09-16T06:04:36.561Z,1.30
2022-09-16T06:07:03.708Z,1.25
2022-09-16T06:09:30.513Z,1.10
2022-09-16T06:12:01.927Z,1.35
2022-09-16T06:14:29.273Z,1.42
2022-09-16T06:16:58.522Z,1.40
2022-09-16T06:19:25.220Z,1.50
2022-09-16T06:21:51.904Z,1.42
2022-09-16T06:24:20.360Z,1.40
2022-09-16T06:26:48.313Z,1.40
2022-09-16T06:29:16.788Z,1.80
2022-09-16T06:31:43.630Z,1.27
2022-09-16T06:34:20.855Z,1.30
2022-09-16T06:36:52.679Z,1.52
2022-09-16T06:39:19.590Z,1.20
2022-09-16T06:41:46.323Z,1.30
2022-09-16T06:44:13.292Z,1.10
2022-09-16T06:46:40.088Z,1.30
2022-09-16T06:49:07.018Z,1.10
2022-09-16T06:51:35.934Z,1.30
2022-09-16T06:54:05.565Z,1.20
2022-09-16T06:56:34.148Z,1.25
2022-09-16T06:59:00.837Z,1.20
2022-09-16T07:01:29.991Z,1.17
2022-09-16T07:03:58.594Z,1.10
2022-09-16T07:06:57.356Z,1.02
2022-09-16T07:09:17.188Z,1.25
2022-09-16T07:11:44.148Z,1.05
2022-09-16T07:14:11.263Z,1.05
2022-09-16T07:16:38.021Z,1.02
2022-09-16T07:19:05.360Z,1.30
2022-09-16T07:21:32.352Z,1.10
2022-09-16T07:24:01.772Z,1.00
2022-09-16T07:26:33.243Z,1.10
2022-09-16T07:29:03.165Z,1.20
2022-09-16T07:31:33.086Z,1.48
2022-09-16T07:34:04.924Z,0.95
2022-09-16T07:36:37.741Z,1.05
2022-09-16T07:39:05.951Z,1.38
2022-09-16T07:41:36.053Z,1.40
2022-09-16T07:44:04.036Z,1.52
2022-09-16T07:46:33.388Z,1.50
2022-09-16T07:49:02.239Z,1.67
2022-09-16T07:51:30.214Z,1.55
2022-09-16T07:54:03.590Z,1.20
2022-09-16T07:56:34.393Z,1.85
2022-09-16T07:59:02.188Z,1.65
2022-09-16T08:01:31.196Z,1.50
2022-09-16T08:03:59.411Z,1.48
2022-09-16T08:06:30.064Z,1.17
2022-09-16T08:09:10.462Z,1.13
2022-09-16T08:11:46.790Z,1.20
2022-09-16T08:14:13.516Z,1.30
2022-09-16T08:16:40.365Z,1.35
2022-09-16T08:19:07.126Z,1.02
2022-09-16T08:21:33.837Z,1.00
2022-09-16T08:24:00.621Z,1.48
2022-09-16T08:26:27.493Z,1.02
2022-09-16T08:29:10.480Z,1.00
2022-09-16T08:31:38.466Z,1.30
2022-09-16T08:34:06.223Z,1.27
2022-09-16T08:36:36.141Z,1.13
2022-09-16T08:39:03.057Z,1.27
2022-09-16T08:42:06.077Z,1.05
2022-09-16T08:44:46.597Z,0.93
2022-09-16T08:47:19.283Z,1.00
2022-09-16T08:49:50.403Z,0.93
2022-09-16T08:52:45.035Z,1.33
2022-09-16T08:55:15.070Z,0.90
2022-09-16T08:58:00.950Z,0.82
2022-09-16T09:00:27.784Z,0.90
2022-09-16T09:03:15.087Z,0.93
2022-09-16T09:05:56.744Z,0.80
2022-09-16T09:08:51.441Z,1.05
2022-09-16T09:11:27.001Z,0.90
2022-09-16T09:14:24.683Z,0.70
2022-09-16T09:17:10.519Z,1.40
2022-09-16T09:19:52.081Z,0.90
2022-09-16T09:22:46.051Z,0.90
2022-09-16T09:25:25.172Z,0.90
2022-09-16T09:27:51.923Z,0.98
2022-09-16T09:30:21.843Z,1.00
2022-09-16T09:33:17.584Z,1.13
2022-09-16T09:36:42.764Z,1.20
2022-09-16T09:39:17.995Z,0.90
2022-09-16T09:42:00.520Z,1.20
2022-09-16T09:44:39.806Z,1.00
2022-09-16T09:47:15.030Z,0.82
2022-09-16T09:49:50.505Z,0.90
2022-09-16T09:52:31.254Z,0.77
2022-09-16T09:55:16.133Z,1.00
2022-09-16T09:58:09.402Z,0.80
2022-09-16T10:00:36.189Z,0.90
2022-09-16T10:03:11.249Z,0.80
2022-09-16T10:05:38.795Z,0.80
2022-09-16T10:08:21.689Z,0.80
2022-09-16T10:10:56.957Z,1.00
2022-09-16T10:13:25.927Z,0.57
2022-09-16T10:16:10.407Z,0.90
2022-09-16T10:18:37.697Z,0.88
2022-09-16T10:21:15.822Z,0.77
2022-09-16T10:23:54.392Z,0.85
2022-09-16T10:26:28.657Z,1.05
2022-09-16T10:28:58.310Z,0.70
2022-09-16T10:31:32.019Z,0.52
2022-09-16T10:34:03.152Z,0.90
2022-09-16T10:36:34.277Z,0.90
2022-09-16T10:39:04.691Z,0.75
2022-09-16T10:41:42.496Z,0.60
2022-09-16T10:44:25.527Z,0.57
2022-09-16T10:47:02.421Z,0.60
2022-09-16T10:49:40.906Z,0.47
2022-09-16T10:52:29.295Z,0.45
2022-09-16T10:54:56.983Z,0.77
2022-09-16T10:57:32.453Z,0.70
2022-09-16T11:00:15.809Z,0.80
2022-09-16T11:03:03.909Z,1.02
2022-09-16T11:05:44.896Z,1.10
2022-09-16T11:08:26.190Z,1.13
2022-09-16T11:11:02.627Z,0.98
2022-09-16T11:13:38.421Z,1.05
2022-09-16T11:16:17.174Z,1.10
2022-09-16T11:18:54.181Z,1.00
2022-09-16T11:21:23.827Z,1.00
2022-09-16T11:24:28.267Z,0.73
2022-09-16T11:27:40.110Z,0.93
2022-09-16T11:30:22.417Z,1.20
2022-09-16T11:35:47.276Z,1.20
2022-09-16T11:38:41.183Z,1.30
2022-09-16T11:41:24.521Z,1.80
2022-09-16T11:44:00.558Z,1.10
2022-09-16T11:46:51.671Z,0.90
2022-09-16T11:49:43.575Z,1.00
2022-09-16T11:52:37.830Z,0.90
2022-09-16T11:55:22.748Z,1.33
2022-09-16T11:58:04.364Z,1.08
2022-09-16T12:00:33.946Z,0.90
2022-09-16T12:03:22.592Z,1.13
2022-09-16T12:05:56.917Z,1.20
2022-09-16T12:08:38.258Z,1.05
2022-09-16T12:11:33.203Z,1.10
2022-09-16T12:14:24.323Z,1.00
2022-09-16T12:17:39.492Z,1.00
2022-09-16T12:20:33.536Z,1.20
2022-09-16T12:23:19.947Z,0.88
2022-09-16T12:26:15.368Z,1.13
2022-09-16T12:28:48.817Z,1.00
2022-09-16T12:31:27.115Z,1.00
2022-09-16T12:34:01.974Z,0.90
2022-09-16T12:36:33.466Z,1.00
2022-09-16T12:39:01.057Z,1.00
2022-09-16T12:41:33.827Z,0.90
2022-09-16T12:44:33.531Z,0.80
2022-09-16T12:47:18.074Z,0.77
2022-09-16T12:50:07.218Z,0.70
2022-09-16T12:52:53.067Z,1.00
2022-09-16T12:55:29.487Z,0.77
2022-09-16T12:58:17.304Z,0.93
2022-09-16T13:01:14.787Z,0.57
2022-09-16T13:03:47.152Z,0.70
2022-09-16T13:06:29.187Z,0.93
2022-09-16T13:08:57.166Z,0.90
2022-09-16T13:14:27.662Z,0.80
2022-09-16T13:16:57.623Z,0.65
2022-09-16T13:19:36.879Z,0.75
2022-09-16T13:22:33.834Z,0.88
2022-09-16T13:25:19.626Z,0.65
2022-09-16T13:28:01.883Z,1.02
2022-09-16T13:30:37.504Z,0.70
2022-09-16T13:33:26.584Z,0.70
2022-09-16T13:36:15.424Z,0.80
2022-09-16T13:38:53.778Z,1.00
2022-09-16T13:41:35.376Z,0.90
2022-09-16T13:44:22.062Z,0.85
2022-09-16T13:46:48.971Z,1.10
2022-09-16T13:49:27.798Z,0.80
2022-09-16T13:51:55.146Z,0.70
2022-09-16T13:54:48.098Z,0.80
2022-09-16T13:57:33.445Z,0.70
2022-09-16T14:00:05.424Z,0.65
2022-09-16T14:02:39.653Z,0.60
2022-09-16T14:05:43.950Z,0.55
2022-09-16T14:08:24.910Z,0.63
2022-09-16T14:11:09.157Z,0.60
2022-09-16T14:13:44.216Z,0.93
2022-09-16T14:16:20.159Z,0.82
2022-09-16T14:19:03.393Z,0.63
2022-09-16T14:21:30.887Z,0.85
2022-09-16T14:24:19.914Z,0.80
2022-09-16T14:26:54.439Z,0.80
2022-09-16T14:29:22.599Z,0.80
2022-09-16T14:31:53.186Z,0.75
2022-09-16T14:34:34.726Z,0.60
2022-09-16T14:37:02.201Z,0.57
2022-09-16T14:39:29.947Z,0.47
2022-09-16T14:42:05.009Z,0.32
2022-09-16T14:44:47.285Z,0.40
2022-09-16T14:47:30.803Z,0.50
2022-09-16T14:50:14.283Z,0.50
2022-09-16T14:52:41.582Z,0.50
2022-09-16T14:55:19.743Z,0.68
2022-09-16T14:57:46.844Z,0.80
2022-09-16T15:00:16.910Z,0.57
2022-09-16T15:02:51.704Z,0.50
2022-09-16T15:05:35.930Z,0.38
2022-09-16T15:08:21.517Z,0.43
2022-09-16T15:11:02.120Z,0.65
2022-09-16T15:13:35.799Z,0.50
2022-09-16T15:16:08.525Z,0.50
2022-09-16T15:18:38.877Z,0.50
2022-09-16T15:21:11.571Z,0.50
2022-09-16T15:23:41.708Z,0.80
2022-09-16T15:26:16.173Z,0.40
2022-09-16T15:28:54.916Z,0.50
2022-09-16T15:31:38.808Z,0.40
2022-09-16T15:34:20.783Z,0.60
2022-09-16T15:36:53.889Z,0.40
2022-09-16T15:39:40.918Z,0.50
2022-09-16T15:42:18.911Z,0.47
2022-09-16T15:45:14.154Z,0.60
2022-09-16T15:47:57.600Z,0.60
2022-09-16T15:50:27.516Z,0.40
2022-09-16T15:53:04.804Z,0.60
2022-09-16T15:55:34.561Z,0.60
2022-09-16T15:58:15.703Z,0.63
2022-09-16T16:01:03.018Z,0.57
2022-09-16T16:03:58.683Z,0.75
2022-09-16T16:06:51.289Z,0.60
2022-09-16T16:09:27.431Z,0.63
2022-09-16T16:12:01.887Z,0.70
2022-09-16T16:14:34.678Z,0.60
2022-09-16T16:17:14.600Z,0.70
2022-09-16T16:19:43.669Z,0.68
2022-09-16T16:22:11.175Z,0.50
2022-09-16T16:24:38.578Z,0.60
2022-09-16T16:27:08.482Z,0.50
2022-09-16T16:29:35.416Z,0.88
2022-09-16T16:32:13.728Z,0.70
2022-09-16T16:34:46.713Z,0.80
2022-09-16T16:37:33.891Z,0.60
2022-09-16T16:40:02.512Z,0.70
2022-09-16T16:42:29.604Z,0.80
2022-09-16T16:44:56.710Z,1.00
2022-09-16T16:47:24.032Z,0.90
2022-09-16T16:49:51.918Z,0.77
2022-09-16T16:52:18.970Z,0.70
2022-09-16T16:54:46.622Z,0.90
2022-09-16T16:57:13.481Z,0.80
2022-09-16T16:59:40.306Z,0.98
2022-09-16T17:02:09.352Z,1.08
2022-09-16T17:04:36.761Z,0.70
2022-09-16T17:07:24.544Z,0.85
2022-09-16T17:09:50.366Z,0.70
2022-09-16T17:12:18.048Z,0.80
2022-09-16T17:14:44.860Z,0.73
2022-09-16T17:17:11.593Z,0.93
2022-09-16T17:19:38.934Z,1.00
2022-09-16T17:22:05.729Z,1.00
2022-09-16T17:24:33.113Z,0.73
2022-09-16T17:27:00.279Z,0.68
2022-09-16T17:29:26.947Z,0.82
2022-09-16T17:31:56.864Z,0.80
2022-09-16T17:34:23.866Z,0.75
2022-09-16T17:36:53.366Z,0.70
2022-09-16T17:39:22.698Z,1.00
2022-09-16T17:41:50.996Z,0.80
2022-09-16T17:44:18.958Z,0.82
2022-09-16T17:46:46.992Z,0.90
2022-09-16T17:49:15.546Z,0.70
2022-09-16T17:51:43.137Z,0.80
2022-09-16T17:54:10.163Z,0.77
2022-09-16T17:56:36.999Z,0.70
2022-09-16T17:59:03.821Z,1.25
2022-09-16T18:01:30.859Z,0.90
2022-09-16T18:03:58.295Z,0.90
2022-09-16T18:06:40.384Z,1.05
2022-09-16T18:09:10.083Z,1.00
2022-09-16T18:11:38.731Z,1.08
2022-09-16T18:14:08.097Z,0.98
2022-09-16T18:16:35.408Z,1.10
2022-09-16T18:19:02.927Z,0.88
2022-09-16T18:21:30.738Z,1.38
2022-09-16T18:23:59.937Z,0.85
2022-09-16T18:26:27.787Z,0.93
2022-09-16T18:29:12.629Z,1.10
2022-09-16T18:31:43.886Z,1.00
2022-09-16T18:34:11.499Z,1.27
2022-09-16T18:36:39.386Z,1.10
2022-09-16T18:39:07.986Z,1.20
2022-09-16T18:41:37.577Z,0.90
2022-09-16T18:44:17.247Z,1.05
2022-09-16T18:46:44.327Z,1.30
2022-09-16T18:49:12.967Z,1.30
2022-09-16T18:51:48.479Z,1.25
2022-09-16T18:54:25.894Z,1.00
2022-09-16T18:56:55.807Z,1.75
2022-09-16T18:59:26.801Z,2.05
2022-09-16T19:01:55.835Z,2.10
2022-09-16T19:04:26.056Z,1.60
2022-09-16T19:06:59.399Z,1.65
2022-09-16T19:09:26.412Z,1.73
2022-09-16T19:11:54.336Z,2.13
2022-09-16T19:14:24.599Z,1.42
2022-09-16T19:16:52.109Z,1.50
2022-09-16T19:19:19.865Z,1.50
2022-09-16T19:21:47.432Z,1.20
2022-09-16T19:24:19.994Z,1.38
2022-09-16T19:26:48.266Z,1.30
2022-09-16T19:29:16.337Z,1.38
2022-09-16T19:31:45.894Z,1.60
2022-09-16T19:34:14.176Z,1.60
2022-09-16T19:36:41.596Z,1.15
2022-09-16T19:39:09.889Z,1.40
2022-09-16T19:41:39.101Z,1.42
2022-09-16T19:44:08.294Z,1.38
2022-09-16T19:46:37.091Z,1.30
2022-09-16T19:49:05.572Z,1.30
2022-09-16T19:51:33.259Z,1.50
2022-09-16T19:54:01.266Z,1.58
2022-09-16T19:56:32.125Z,1.20
2022-09-16T19:59:01.323Z,1.52
2022-09-16T20:01:30.813Z,1.30
2022-09-16T20:03:57.876Z,1.50
2022-09-16T20:06:32.555Z,1.50
2022-09-16T20:09:01.406Z,1.45
2022-09-16T20:11:33.956Z,1.48
2022-09-16T20:14:03.898Z,1.58
2022-09-16T20:16:35.827Z,1.67
2022-09-16T20:19:08.403Z,1.40
2022-09-16T20:21:35.749Z,1.60
2022-09-16T20:24:05.841Z,1.40
2022-09-16T20:26:34.115Z,1.60
2022-09-16T20:29:01.521Z,1.52
2022-09-16T20:31:31.330Z,1.48
2022-09-16T20:33:58.338Z,1.60
2022-09-16T20:36:26.597Z,1.38
2022-09-16T20:38:54.399Z,1.20
2022-09-16T20:41:26.777Z,1.30
2022-09-16T20:43:53.783Z,1.20
2022-09-16T20:46:21.953Z,1.40
2022-09-16T20:48:49.086Z,1.30
2022-09-16T20:51:19.050Z,1.20
2022-09-16T20:53:51.748Z,1.17
2022-09-16T20:56:19.042Z,1.20
2022-09-16T20:58:47.030Z,1.38
2022-09-16T21:01:18.602Z,1.60
2022-09-16T21:03:45.763Z,1.00
2022-09-16T21:06:14.954Z,1.10
2022-09-16T21:08:42.665Z,1.40
2022-09-16T21:11:14.726Z,1.48
2022-09-16T21:13:43.612Z,0.93
2022-09-16T21:16:12.896Z,1.33
2022-09-16T21:18:40.333Z,1.20
2022-09-16T21:21:15.453Z,1.13
2022-09-16T21:23:42.476Z,1.15
2022-09-16T21:26:14.959Z,0.93
2022-09-16T21:28:43.422Z,1.33
2022-09-16T21:31:13.297Z,1.45
2022-09-16T21:33:42.424Z,1.98
2022-09-16T21:36:13.690Z,1.10
2022-09-16T21:38:41.228Z,1.38
2022-09-16T21:41:12.329Z,1.30
2022-09-16T21:43:41.792Z,1.42
2022-09-16T21:46:43.093Z,1.25
2022-09-16T21:49:22.448Z,1.55
2022-09-16T21:51:50.848Z,1.10
2022-09-16T21:54:20.215Z,1.30
2022-09-16T21:56:47.497Z,1.70
2022-09-16T21:59:14.356Z,1.30
2022-09-16T22:01:41.136Z,1.33
2022-09-16T22:04:13.323Z,1.15
2022-09-16T22:06:40.830Z,1.27
2022-09-16T22:09:09.427Z,1.50
2022-09-16T22:11:40.539Z,1.60
2022-09-16T22:14:07.934Z,1.65
2022-09-16T22:16:37.427Z,1.50
2022-09-16T22:19:19.112Z,1.42
2022-09-16T22:21:51.339Z,1.38
2022-09-16T22:24:21.467Z,1.50
2022-09-16T22:26:50.881Z,1.67
2022-09-16T22:29:17.833Z,1.63
2022-09-16T22:31:44.630Z,1.48
2022-09-16T22:34:11.478Z,1.25
2022-09-16T22:36:39.082Z,1.45
2022-09-16T22:39:11.437Z,1.50
2022-09-16T22:41:38.196Z,1.45
2022-09-16T22:44:05.106Z,1.35
2022-09-16T22:46:35.520Z,1.50
2022-09-16T22:49:02.628Z,1.50
2022-09-16T22:51:29.809Z,1.88
2022-09-16T22:53:56.614Z,1.40
2022-09-16T22:56:31.792Z,1.48
2022-09-16T22:59:00.727Z,1.80
2022-09-16T23:01:31.934Z,1.30
2022-09-16T23:04:00.677Z,1.15
2022-09-16T23:06:32.437Z,1.25
2022-09-16T23:08:59.652Z,1.15
2022-09-16T23:11:29.775Z,1.30
2022-09-16T23:13:57.710Z,1.10
2022-09-16T23:16:27.767Z,1.30
2022-09-16T23:18:57.266Z,1.30
2022-09-16T23:21:25.014Z,1.25
2022-09-16T23:23:54.370Z,1.30
2022-09-16T23:26:23.454Z,1.13
2022-09-16T23:28:54.977Z,1.20
2022-09-16T23:31:24.070Z,1.35
2022-09-16T23:33:51.183Z,1.38
2022-09-16T23:36:18.878Z,1.20
2022-09-16T23:38:46.181Z,1.27
2022-09-16T23:41:15.636Z,1.50
2022-09-16T23:43:43.494Z,1.40
2022-09-16T23:46:11.547Z,1.27
2022-09-16T23:48:38.412Z,1.17
2022-09-16T23:51:07.316Z,1.40
2022-09-16T23:53:35.345Z,1.23
2022-09-16T23:56:08.980Z,1.33
2022-09-16T23:58:35.902Z,1.15
